createdAt,value
2022-08-10T00:00:56.366Z,36.83
2022-08-10T00:03:23.764Z,37.96
2022-08-10T00:05:53.237Z,37.81
2022-08-10T00:08:24.110Z,37.61
2022-08-10T00:10:56.469Z,37.33
2022-08-10T00:13:25.437Z,36.81
2022-08-10T00:15:54.983Z,36.86
2022-08-10T00:18:35.297Z,36.97
2022-08-10T00:21:07.726Z,36.72
2022-08-10T00:23:36.030Z,37.58
2022-08-10T00:26:03.532Z,37.44
2022-08-10T00:28:30.543Z,36.92
2022-08-10T00:30:57.633Z,36.60
2022-08-10T00:33:24.859Z,36.76
2022-08-10T00:35:51.637Z,36.78
2022-08-10T00:38:18.368Z,37.60
2022-08-10T00:40:46.147Z,38.45
2022-08-10T00:43:13.048Z,38.63
2022-08-10T00:45:40.048Z,38.39
2022-08-10T00:48:07.122Z,38.22
2022-08-10T00:50:34.453Z,37.31
2022-08-10T00:53:01.888Z,37.29
2022-08-10T00:55:28.927Z,37.43
2022-08-10T00:57:56.649Z,36.98
2022-08-10T01:00:24.634Z,38.72
2022-08-10T01:02:51.901Z,38.87
2022-08-10T01:05:20.475Z,40.20
2022-08-10T01:08:05.945Z,39.31
2022-08-10T01:10:41.916Z,40.21
2022-08-10T01:13:11.447Z,40.32
2022-08-10T01:15:47.847Z,39.80
2022-08-10T01:18:20.388Z,40.41
2022-08-10T01:21:04.797Z,40.14
2022-08-10T01:23:56.565Z,39.72
2022-08-10T01:27:04.617Z,40.64
2022-08-10T01:29:37.254Z,40.98
2022-08-10T01:32:07.126Z,41.20
2022-08-10T01:34:51.740Z,41.10
2022-08-10T01:37:24.728Z,41.05
2022-08-10T01:39:56.694Z,41.12
2022-08-10T01:42:25.085Z,40.25
2022-08-10T01:45:02.269Z,40.59
2022-08-10T01:47:53.100Z,41.58
2022-08-10T01:50:30.069Z,41.61
2022-08-10T01:55:52.040Z,42.87
2022-08-10T01:58:20.933Z,42.07
2022-08-10T02:00:50.793Z,41.72
2022-08-10T02:03:19.393Z,42.81
2022-08-10T02:05:49.660Z,41.63
2022-08-10T02:08:19.332Z,41.27
2022-08-10T02:10:47.949Z,41.13
2022-08-10T02:13:18.975Z,40.39
2022-08-10T02:16:01.083Z,41.03
2022-08-10T02:18:31.096Z,40.78
2022-08-10T02:21:02.273Z,40.54
2022-08-10T02:23:32.076Z,39.97
2022-08-10T02:26:00.815Z,39.85
2022-08-10T02:28:31.246Z,39.67
2022-08-10T02:31:06.152Z,39.98
2022-08-10T02:33:36.885Z,39.96
2022-08-10T02:36:10.108Z,39.69
2022-08-10T02:38:59.494Z,40.34
2022-08-10T02:45:12.728Z,39.88
2022-08-10T02:45:20.984Z,39.89
2022-08-10T02:47:51.749Z,39.80
2022-08-10T02:50:40.014Z,40.64
2022-08-10T02:53:54.899Z,40.46
2022-08-10T02:56:10.131Z,40.41
2022-08-10T02:59:00.941Z,40.38
2022-08-10T03:01:34.110Z,41.93
2022-08-10T03:04:11.887Z,41.46
2022-08-10T03:06:44.072Z,41.28
2022-08-10T03:09:15.189Z,41.61
2022-08-10T03:12:35.530Z,41.48
2022-08-10T03:14:31.858Z,40.78
2022-08-10T03:16:59.836Z,41.11
2022-08-10T03:20:35.158Z,41.88
2022-08-10T03:22:18.008Z,41.52
2022-08-10T03:24:45.836Z,42.49
2022-08-10T03:27:14.687Z,42.25
2022-08-10T03:30:23.360Z,43.04
2022-08-10T03:32:30.718Z,42.78
2022-08-10T03:34:59.821Z,42.81
2022-08-10T03:37:27.628Z,42.07
2022-08-10T03:39:55.370Z,41.86
2022-08-10T03:42:26.522Z,41.66
2022-08-10T03:44:54.725Z,41.42
2022-08-10T03:47:24.549Z,42.15
2022-08-10T03:49:52.373Z,42.23
2022-08-10T03:52:20.004Z,41.53
2022-08-10T03:54:47.295Z,42.15
2022-08-10T03:57:14.904Z,41.74
2022-08-10T03:59:41.905Z,42.32
2022-08-10T04:02:44.422Z,42.51
2022-08-10T04:04:56.491Z,42.22
2022-08-10T04:07:23.784Z,42.64
2022-08-10T04:09:54.903Z,42.68
2022-08-10T04:12:23.851Z,42.21
2022-08-10T04:14:52.974Z,42.02
2022-08-10T04:17:59.328Z,42.04
2022-08-10T04:20:38.486Z,42.41
2022-08-10T04:23:13.863Z,42.52
2022-08-10T04:25:41.269Z,42.66
2022-08-10T04:28:09.049Z,41.63
2022-08-10T04:30:36.977Z,41.86
2022-08-10T04:33:06.783Z,42.49
2022-08-10T04:35:35.047Z,42.44
2022-08-10T04:38:03.441Z,42.29
2022-08-10T04:40:31.828Z,42.39
2022-08-10T04:43:11.735Z,42.18
2022-08-10T04:45:48.536Z,42.36
2022-08-10T04:48:40.414Z,42.55
2022-08-10T04:51:17.552Z,42.32
2022-08-10T04:54:05.634Z,42.58
2022-08-10T04:56:38.151Z,43.78
2022-08-10T04:59:07.178Z,43.78
2022-08-10T05:02:09.885Z,43.10
2022-08-10T05:04:35.922Z,43.54
2022-08-10T05:07:10.773Z,43.37
2022-08-10T05:10:03.908Z,43.41
2022-08-10T05:12:26.463Z,44.45
2022-08-10T05:14:53.909Z,44.05
2022-08-10T05:17:22.685Z,44.57
2022-08-10T05:20:03.883Z,45.36
2022-08-10T05:22:38.360Z,44.76
2022-08-10T05:25:09.728Z,44.64
2022-08-10T05:27:37.158Z,44.08
2022-08-10T05:30:05.847Z,44.04
2022-08-10T05:32:56.080Z,43.60
2022-08-10T05:35:21.311Z,43.18
2022-08-10T05:38:13.196Z,43.71
2022-08-10T05:40:39.590Z,44.27
2022-08-10T05:43:06.966Z,44.16
2022-08-10T05:45:33.975Z,44.02
2022-08-10T05:48:41.956Z,43.91
2022-08-10T05:51:09.239Z,44.26
2022-08-10T05:54:01.309Z,44.04
2022-08-10T05:56:26.207Z,43.80
2022-08-10T05:58:53.299Z,44.40
2022-08-10T06:01:26.235Z,44.17
2022-08-10T06:03:59.417Z,43.77
2022-08-10T06:06:30.178Z,43.72
2022-08-10T06:08:59.107Z,43.95
2022-08-10T06:12:28.162Z,43.96
2022-08-10T06:14:36.585Z,42.80
2022-08-10T06:17:04.188Z,43.09
2022-08-10T06:19:31.709Z,42.35
2022-08-10T06:22:01.395Z,42.25
2022-08-10T06:24:33.592Z,42.68
2022-08-10T06:27:00.352Z,43.18
2022-08-10T06:29:30.876Z,42.32
2022-08-10T06:31:59.591Z,41.42
2022-08-10T06:34:31.999Z,41.61
2022-08-10T06:37:02.460Z,41.59
2022-08-10T06:39:33.961Z,43.21
2022-08-10T06:42:15.831Z,42.21
2022-08-10T06:44:54.476Z,41.76
2022-08-10T06:47:26.614Z,41.79
2022-08-10T06:49:59.867Z,41.48
2022-08-10T06:52:30.885Z,40.57
2022-08-10T06:55:00.691Z,40.30
2022-08-10T06:57:31.087Z,40.13
2022-08-10T07:00:01.247Z,39.68
2022-08-10T07:02:44.300Z,40.11
2022-08-10T07:05:17.032Z,40.00
2022-08-10T07:07:45.898Z,39.37
2022-08-10T07:10:16.507Z,39.70
2022-08-10T07:12:44.570Z,40.18
2022-08-10T07:15:13.044Z,40.82
2022-08-10T07:17:41.927Z,38.75
2022-08-10T07:20:10.638Z,39.81
2022-08-10T07:23:27.114Z,40.18
2022-08-10T07:25:28.460Z,39.66
2022-08-10T07:28:00.419Z,39.14
2022-08-10T07:30:37.054Z,37.89
2022-08-10T07:33:05.728Z,37.14
2022-08-10T07:35:42.814Z,37.82
2022-08-10T07:38:19.806Z,38.18
2022-08-10T07:40:48.685Z,38.79
2022-08-10T07:43:18.772Z,39.50
2022-08-10T07:45:47.210Z,38.18
2022-08-10T07:48:27.679Z,38.77
2022-08-10T07:50:59.334Z,38.47
2022-08-10T07:53:33.821Z,38.61
2022-08-10T07:56:13.295Z,37.47
2022-08-10T07:58:54.200Z,37.35
2022-08-10T08:01:27.842Z,37.94
2022-08-10T08:04:10.641Z,37.23
2022-08-10T08:06:41.572Z,35.91
2022-08-10T08:09:10.744Z,35.49
2022-08-10T08:11:41.124Z,35.75
2022-08-10T08:14:09.115Z,36.41
2022-08-10T08:16:38.555Z,35.32
2022-08-10T08:24:06.835Z,34.74
2022-08-10T08:24:43.337Z,34.63
2022-08-10T08:27:15.218Z,34.00
2022-08-10T08:29:44.764Z,33.85
2022-08-10T08:32:13.679Z,32.49
2022-08-10T08:34:43.722Z,32.05
2022-08-10T08:37:12.112Z,31.64
2022-08-10T08:39:47.353Z,32.03
2022-08-10T08:42:52.294Z,32.06
2022-08-10T08:46:01.015Z,32.28
2022-08-10T08:48:58.152Z,31.42
2022-08-10T08:52:08.183Z,32.15
2022-08-10T08:54:42.120Z,32.37
2022-08-10T08:57:46.305Z,32.71
2022-08-10T09:00:14.522Z,32.00
2022-08-10T09:02:41.322Z,31.99
2022-08-10T09:05:26.957Z,31.42
2022-08-10T09:08:18.005Z,32.87
2022-08-10T09:11:02.985Z,32.49
2022-08-10T09:13:41.275Z,32.91
2022-08-10T09:16:26.107Z,31.65
2022-08-10T09:19:36.551Z,30.83
2022-08-10T09:22:18.042Z,30.99
2022-08-10T09:25:00.399Z,31.13
2022-08-10T09:27:35.411Z,30.49
2022-08-10T09:30:07.041Z,29.88
2022-08-10T09:36:25.386Z,30.65
2022-08-10T09:36:27.607Z,29.64
2022-08-10T09:38:58.547Z,29.64
2022-08-10T09:41:39.206Z,29.58
2022-08-10T09:44:20.332Z,29.60
2022-08-10T09:47:14.996Z,29.89
2022-08-10T09:50:06.959Z,29.58
2022-08-10T09:53:06.351Z,29.87
2022-08-10T09:56:19.106Z,29.41
2022-08-10T09:58:46.688Z,30.10
2022-08-10T10:02:03.307Z,29.17
2022-08-10T10:04:58.754Z,29.59
2022-08-10T10:07:29.609Z,29.83
2022-08-10T10:10:10.773Z,29.24
2022-08-10T10:12:55.196Z,29.55
2022-08-10T10:15:37.908Z,28.22
2022-08-10T10:18:07.699Z,28.28
2022-08-10T10:21:11.524Z,28.04
2022-08-10T10:24:20.171Z,29.47
2022-08-10T10:27:00.184Z,28.35
2022-08-10T10:29:58.299Z,27.37
2022-08-10T10:32:57.676Z,28.60
2022-08-10T10:35:36.587Z,28.84
2022-08-10T10:38:08.875Z,28.48
2022-08-10T10:40:45.565Z,29.13
2022-08-10T10:43:33.872Z,28.39
2022-08-10T10:46:29.763Z,28.78
2022-08-10T10:49:22.847Z,28.28
2022-08-10T10:52:02.962Z,28.74
2022-08-10T10:54:41.681Z,29.54
2022-08-10T10:57:58.516Z,29.20
2022-08-10T11:00:37.052Z,29.21
2022-08-10T11:03:23.715Z,29.42
2022-08-10T11:06:09.674Z,30.25
2022-08-10T11:08:44.390Z,29.01
2022-08-10T11:12:00.031Z,29.26
2022-08-10T11:14:29.185Z,29.46
2022-08-10T11:17:14.656Z,29.64
2022-08-10T11:20:01.820Z,28.71
2022-08-10T11:22:42.456Z,29.43
2022-08-10T11:25:44.802Z,29.35
2022-08-10T11:29:01.651Z,30.33
2022-08-10T11:31:57.683Z,30.24
2022-08-10T11:35:11.584Z,30.29
2022-08-10T11:38:31.331Z,30.10
2022-08-10T11:40:49.352Z,30.01
2022-08-10T11:43:27.310Z,30.56
2022-08-10T11:46:34.672Z,30.21
2022-08-10T11:49:07.299Z,29.73
2022-08-10T11:51:56.899Z,29.82
2022-08-10T11:54:31.303Z,29.93
2022-08-10T11:57:02.551Z,29.80
2022-08-10T11:59:58.407Z,30.84
2022-08-10T12:02:40.906Z,29.81
2022-08-10T12:05:18.216Z,30.51
2022-08-10T12:10:01.605Z,30.24
2022-08-10T12:10:42.705Z,30.13
2022-08-10T12:13:22.317Z,30.63
2022-08-10T12:15:49.096Z,30.38
2022-08-10T12:18:21.971Z,30.41
2022-08-10T12:20:53.757Z,31.21
2022-08-10T12:23:31.133Z,30.61
2022-08-10T12:26:29.562Z,29.97
2022-08-10T12:29:08.860Z,30.28
2022-08-10T12:31:43.192Z,31.76
2022-08-10T12:34:20.398Z,30.92
2022-08-10T12:37:11.004Z,30.50
2022-08-10T12:39:52.246Z,29.99
2022-08-10T12:43:02.593Z,30.17
2022-08-10T12:46:04.335Z,29.93
2022-08-10T12:48:42.257Z,30.25
2022-08-10T12:51:20.605Z,30.44
2022-08-10T12:53:51.896Z,30.60
2022-08-10T12:56:27.611Z,30.99
2022-08-10T12:58:57.038Z,31.51
2022-08-10T13:02:07.928Z,31.19
2022-08-10T13:04:31.485Z,31.80
2022-08-10T13:07:04.056Z,31.94
2022-08-10T13:09:32.652Z,31.58
2022-08-10T13:12:36.343Z,31.68
2022-08-10T13:14:59.829Z,31.48
2022-08-10T13:17:39.273Z,31.98
2022-08-10T13:20:30.030Z,31.70
2022-08-10T13:23:01.432Z,31.72
2022-08-10T13:25:40.575Z,31.52
2022-08-10T13:28:37.278Z,31.59
2022-08-10T13:31:03.556Z,32.31
2022-08-10T13:34:35.853Z,32.63
2022-08-10T13:36:29.398Z,31.99
2022-08-10T13:38:58.334Z,31.86
2022-08-10T13:41:35.211Z,31.36
2022-08-10T13:44:02.193Z,30.66
2022-08-10T13:46:29.799Z,30.70
2022-08-10T13:49:00.058Z,29.88
2022-08-10T13:51:57.051Z,30.80
2022-08-10T13:54:20.541Z,30.63
2022-08-10T13:56:50.049Z,30.90
2022-08-10T13:59:18.520Z,31.11
2022-08-10T14:01:50.345Z,30.49
2022-08-10T14:04:18.883Z,30.92
2022-08-10T14:06:56.080Z,32.06
2022-08-10T14:09:30.116Z,32.23
2022-08-10T14:11:58.910Z,32.25
2022-08-10T14:14:28.145Z,32.35
2022-08-10T14:16:57.286Z,32.63
2022-08-10T14:19:31.677Z,32.91
2022-08-10T14:22:00.110Z,32.89
2022-08-10T14:24:29.439Z,33.26
2022-08-10T14:27:05.715Z,33.53
2022-08-10T14:29:49.705Z,32.97
2022-08-10T14:32:19.116Z,33.34
2022-08-10T14:36:18.327Z,32.66
2022-08-10T14:37:38.586Z,32.09
2022-08-10T14:40:11.671Z,32.02
2022-08-10T14:42:52.714Z,31.80
2022-08-10T14:45:28.011Z,32.13
2022-08-10T14:48:01.335Z,32.22
2022-08-10T14:50:32.799Z,32.56
2022-08-10T14:53:17.844Z,33.53
2022-08-10T14:55:58.529Z,34.04
2022-08-10T14:58:35.584Z,34.12
2022-08-10T15:01:07.920Z,35.66
2022-08-10T15:04:00.978Z,37.07
2022-08-10T15:06:30.653Z,36.99
2022-08-10T15:09:19.769Z,38.14
2022-08-10T15:12:13.349Z,38.63
2022-08-10T15:14:49.707Z,39.20
2022-08-10T15:17:26.797Z,39.40
2022-08-10T15:20:02.712Z,39.02
2022-08-10T15:22:40.495Z,40.29
2022-08-10T15:25:17.853Z,40.63
2022-08-10T15:27:53.715Z,40.69
2022-08-10T15:30:30.560Z,40.83
2022-08-10T15:33:57.626Z,40.85
2022-08-10T15:36:34.819Z,42.77
2022-08-10T15:40:23.863Z,42.75
2022-08-10T15:42:19.329Z,42.73
2022-08-10T15:44:50.030Z,42.94
2022-08-10T15:47:44.830Z,43.77
2022-08-10T15:50:25.355Z,44.97
2022-08-10T15:53:07.267Z,45.25
2022-08-10T15:55:45.988Z,44.32
2022-08-10T15:58:40.319Z,44.77
2022-08-10T16:02:13.691Z,44.12
2022-08-10T16:04:35.478Z,43.76
2022-08-10T16:07:11.505Z,44.31
2022-08-10T16:10:24.728Z,43.85
2022-08-10T16:12:59.532Z,43.50
2022-08-10T16:15:29.232Z,43.38
2022-08-10T16:18:02.028Z,43.87
2022-08-10T16:20:55.270Z,44.04
2022-08-10T16:23:32.237Z,43.59
2022-08-10T16:26:14.726Z,44.15
2022-08-10T16:28:50.738Z,43.54
2022-08-10T16:31:24.217Z,43.03
2022-08-10T16:33:55.181Z,43.17
2022-08-10T16:36:37.977Z,43.87
2022-08-10T16:39:06.157Z,43.47
2022-08-10T16:42:03.813Z,42.86
2022-08-10T16:44:28.732Z,42.86
2022-08-10T16:46:57.557Z,42.78
2022-08-10T16:49:26.150Z,41.93
2022-08-10T16:51:53.735Z,42.15
2022-08-10T16:54:27.392Z,42.88
2022-08-10T16:57:01.114Z,42.40
2022-08-10T16:59:31.258Z,42.57
2022-08-10T17:02:00.925Z,42.57
2022-08-10T17:04:30.201Z,43.12
2022-08-10T17:06:59.751Z,41.52
2022-08-10T17:09:29.969Z,41.63
2022-08-10T17:11:59.069Z,42.02
2022-08-10T17:14:29.033Z,42.27
2022-08-10T17:17:19.040Z,41.00
2022-08-10T17:19:46.148Z,41.22
2022-08-10T17:22:23.771Z,41.43
2022-08-10T17:24:56.709Z,41.90
2022-08-10T17:28:04.009Z,41.59
2022-08-10T17:30:33.814Z,42.38
2022-08-10T17:33:09.820Z,42.00
2022-08-10T17:35:39.022Z,42.38
2022-08-10T17:38:10.893Z,42.07
2022-08-10T17:40:48.941Z,41.93
2022-08-10T17:44:00.952Z,42.21
2022-08-10T17:46:11.745Z,41.80
2022-08-10T17:48:39.936Z,41.59
2022-08-10T17:51:15.599Z,41.60
2022-08-10T17:53:51.891Z,41.22
2022-08-10T17:56:21.109Z,41.53
2022-08-10T17:59:01.321Z,41.08
2022-08-10T18:01:41.842Z,41.79
2022-08-10T18:04:22.158Z,41.14
2022-08-10T18:06:54.656Z,40.03
2022-08-10T18:09:30.767Z,40.67
2022-08-10T18:12:02.033Z,41.59
2022-08-10T18:14:32.580Z,40.32
2022-08-10T18:17:10.353Z,41.65
2022-08-10T18:19:40.265Z,41.39
2022-08-10T18:22:11.370Z,42.26
2022-08-10T18:24:38.880Z,42.01
2022-08-10T18:27:07.874Z,41.84
2022-08-10T18:29:40.339Z,41.54
2022-08-10T18:32:08.146Z,40.90
2022-08-10T18:34:39.266Z,42.02
2022-08-10T18:37:10.110Z,41.61
2022-08-10T18:39:39.838Z,42.60
2022-08-10T18:42:13.911Z,41.48
2022-08-10T18:44:50.303Z,41.08
2022-08-10T18:47:25.704Z,41.24
2022-08-10T18:50:13.995Z,41.14
2022-08-10T18:52:44.172Z,42.70
2022-08-10T18:55:35.417Z,42.44
2022-08-10T18:58:47.821Z,42.28
2022-08-10T19:01:14.822Z,42.04
2022-08-10T19:04:12.059Z,42.45
2022-08-10T19:07:04.985Z,42.63
2022-08-10T19:09:46.313Z,42.57
2022-08-10T19:12:48.331Z,42.69
2022-08-10T19:15:32.916Z,41.93
2022-08-10T19:18:39.193Z,43.33
2022-08-10T19:21:08.917Z,43.13
2022-08-10T19:23:52.775Z,42.12
2022-08-10T19:27:18.110Z,41.82
2022-08-10T19:30:12.153Z,40.59
2022-08-10T19:32:58.807Z,40.40
2022-08-10T19:36:03.479Z,40.90
2022-08-10T19:38:53.754Z,40.54
2022-08-10T19:41:32.716Z,41.13
2022-08-10T19:44:52.778Z,40.59
2022-08-10T19:47:31.795Z,40.94
2022-08-10T19:50:09.619Z,40.46
2022-08-10T19:52:42.602Z,41.44
2022-08-10T19:55:25.586Z,40.18
2022-08-10T19:58:03.256Z,40.91
2022-08-10T20:00:56.004Z,41.42
2022-08-10T20:03:32.052Z,41.27
2022-08-10T20:06:19.243Z,40.15
2022-08-10T20:09:06.763Z,40.77
2022-08-10T20:11:58.560Z,39.81
2022-08-10T20:14:34.181Z,40.73
2022-08-10T20:17:09.757Z,40.33
2022-08-10T20:19:53.966Z,40.33
2022-08-10T20:22:50.621Z,41.54
2022-08-10T20:25:25.006Z,41.32
2022-08-10T20:28:12.070Z,41.23
2022-08-10T20:30:46.827Z,41.34
2022-08-10T20:33:32.374Z,40.83
2022-08-10T20:36:08.355Z,41.48
2022-08-10T20:38:59.764Z,41.72
2022-08-10T20:41:43.815Z,41.49
2022-08-10T20:44:50.722Z,42.99
2022-08-10T20:47:34.019Z,42.50
2022-08-10T20:50:27.279Z,42.10
2022-08-10T20:52:55.562Z,41.64
2022-08-10T20:55:26.307Z,42.23
2022-08-10T20:58:30.022Z,41.59
2022-08-10T21:01:03.846Z,42.15
2022-08-10T21:03:43.628Z,40.97
2022-08-10T21:06:42.029Z,42.39
2022-08-10T21:09:15.197Z,41.73
2022-08-10T21:12:07.874Z,41.14
2022-08-10T21:14:34.707Z,40.59
2022-08-10T21:17:34.607Z,40.96
2022-08-10T21:20:28.628Z,40.94
2022-08-10T21:22:58.801Z,40.76
2022-08-10T21:26:08.649Z,40.64
2022-08-10T21:29:03.864Z,41.16
2022-08-10T21:31:30.533Z,41.70
2022-08-10T21:34:06.188Z,41.59
2022-08-10T21:36:48.076Z,41.69
2022-08-10T21:39:42.006Z,41.92
2022-08-10T21:42:57.754Z,41.55
2022-08-10T21:46:01.774Z,42.32
2022-08-10T21:49:06.900Z,43.27
2022-08-10T21:52:19.184Z,42.02
2022-08-10T21:55:57.318Z,42.45
2022-08-10T21:58:53.258Z,42.33
2022-08-10T22:02:05.762Z,42.33
2022-08-10T22:04:52.884Z,43.09
2022-08-10T22:07:40.093Z,41.95
2022-08-10T22:10:28.553Z,42.42
2022-08-10T22:13:19.601Z,42.16
2022-08-10T22:16:11.981Z,41.99
2022-08-10T22:19:03.497Z,42.47
2022-08-10T22:21:56.115Z,42.46
2022-08-10T22:24:56.746Z,44.07
2022-08-10T22:27:56.281Z,44.06
2022-08-10T22:31:22.933Z,43.68
2022-08-10T22:34:22.404Z,43.42
2022-08-10T22:37:26.618Z,43.01
2022-08-10T22:40:39.090Z,42.95
2022-08-10T22:43:35.911Z,44.31
2022-08-10T22:46:27.956Z,43.88
2022-08-10T22:49:00.849Z,43.24
2022-08-10T22:51:51.041Z,44.15
2022-08-10T22:54:46.354Z,44.89
2022-08-10T22:57:33.867Z,45.91
2022-08-10T23:00:18.625Z,44.17
2022-08-10T23:02:56.415Z,43.65
2022-08-10T23:05:39.553Z,42.69
2022-08-10T23:08:29.853Z,42.79
2022-08-10T23:11:07.618Z,43.05
2022-08-10T23:13:44.348Z,43.71
2022-08-10T23:16:52.620Z,43.70
2022-08-10T23:19:24.675Z,44.04
2022-08-10T23:22:12.974Z,43.73
2022-08-10T23:24:51.758Z,43.93
2022-08-10T23:27:37.462Z,44.51
2022-08-10T23:30:17.228Z,45.72
2022-08-10T23:32:59.591Z,45.85
2022-08-10T23:36:31.882Z,46.10
2022-08-10T23:38:21.254Z,46.23
2022-08-10T23:40:51.155Z,46.72
2022-08-10T23:43:22.064Z,46.41
2022-08-10T23:45:56.643Z,46.39
2022-08-10T23:48:26.449Z,46.63
2022-08-10T23:51:00.461Z,45.17
2022-08-10T23:53:33.509Z,46.66
2022-08-10T23:56:08.216Z,47.35
2022-08-10T23:58:44.418Z,47.03
